createdAt,value
2019-02-09T00:02:29.515Z,9.12
2019-02-09T00:08:35.432Z,9.13
2019-02-09T00:14:41.190Z,9.13
2019-02-09T00:20:47.191Z,9.10
2019-02-09T00:26:52.960Z,9.02
2019-02-09T00:32:58.802Z,8.99
2019-02-09T00:39:05.518Z,8.89
2019-02-09T00:45:12.248Z,8.92
2019-02-09T00:51:18.212Z,8.93
2019-02-09T00:57:24.700Z,8.91
2019-02-09T01:03:30.411Z,8.89
2019-02-09T01:09:36.428Z,8.87
2019-02-09T01:15:42.268Z,8.88
2019-02-09T01:21:48.208Z,8.86
2019-02-09T01:27:54.196Z,8.87
2019-02-09T01:33:59.952Z,8.85
2019-02-09T01:40:07.847Z,8.81
2019-02-09T01:46:13.795Z,8.75
2019-02-09T01:52:19.653Z,8.76
2019-02-09T01:58:25.589Z,8.73
2019-02-09T02:04:31.399Z,8.67
2019-02-09T02:10:38.969Z,8.70
2019-02-09T02:16:44.796Z,8.71
2019-02-09T02:22:50.673Z,8.71
2019-02-09T02:28:56.667Z,8.70
2019-02-09T02:35:02.415Z,8.66
2019-02-09T02:41:08.306Z,8.69
2019-02-09T02:47:14.146Z,8.66
2019-02-09T02:53:19.995Z,8.58
2019-02-09T02:59:26.169Z,8.59
2019-02-09T03:05:32.470Z,8.63
2019-02-09T03:11:38.427Z,8.65
2019-02-09T03:17:44.123Z,8.70
2019-02-09T03:23:49.878Z,8.73
2019-02-09T03:29:56.239Z,8.73
2019-02-09T03:36:01.970Z,8.80
2019-02-09T03:42:07.793Z,8.87
2019-02-09T03:48:13.596Z,8.88
2019-02-09T03:54:19.781Z,8.94
2019-02-09T04:00:27.952Z,8.93
2019-02-09T04:06:33.817Z,8.98
2019-02-09T04:12:39.536Z,9.03
2019-02-09T04:18:45.247Z,9.06
2019-02-09T04:24:51.021Z,9.06
2019-02-09T04:31:05.334Z,9.06
2019-02-09T04:37:04.692Z,9.08
2019-02-09T04:43:10.599Z,9.10
2019-02-09T04:49:16.549Z,9.09
2019-02-09T04:55:24.098Z,9.09
2019-02-09T05:01:31.256Z,9.05
2019-02-09T05:07:37.007Z,8.91
2019-02-09T05:13:42.920Z,8.84
2019-02-09T05:19:48.748Z,8.75
2019-02-09T05:25:54.582Z,8.80
2019-02-09T05:32:00.675Z,8.84
2019-02-09T05:38:06.600Z,8.85
2019-02-09T05:44:12.500Z,8.85
2019-02-09T05:50:19.740Z,8.80
2019-02-09T05:56:25.536Z,8.71
2019-02-09T06:02:31.375Z,8.66
2019-02-09T06:08:37.459Z,8.62
2019-02-09T06:14:44.118Z,8.73
2019-02-09T06:20:50.118Z,8.81
2019-02-09T06:26:56.055Z,8.90
2019-02-09T06:33:02.007Z,8.93
2019-02-09T06:39:26.739Z,8.95
2019-02-09T06:45:32.751Z,8.93
2019-02-09T06:51:38.894Z,8.83
2019-02-09T06:57:45.780Z,8.69
2019-02-09T07:03:51.966Z,8.48
2019-02-09T07:09:58.335Z,8.34
2019-02-09T07:16:04.351Z,8.31
2019-02-09T07:22:10.211Z,8.35
2019-02-09T07:28:16.305Z,8.30
2019-02-09T07:34:22.193Z,8.18
2019-02-09T07:40:28.368Z,8.00
2019-02-09T07:46:34.427Z,7.88
2019-02-09T07:52:40.192Z,7.87
2019-02-09T07:58:46.228Z,7.91
2019-02-09T08:04:52.311Z,7.85
2019-02-09T08:10:58.172Z,7.83
2019-02-09T08:17:04.716Z,7.89
2019-02-09T08:23:10.911Z,7.89
2019-02-09T08:29:16.727Z,7.99
2019-02-09T08:35:22.723Z,8.08
2019-02-09T08:41:47.752Z,8.19
2019-02-09T08:47:54.044Z,8.32
2019-02-09T08:54:00.509Z,8.53
2019-02-09T09:00:10.812Z,8.69
2019-02-09T09:06:16.596Z,8.94
2019-02-09T09:12:22.533Z,9.00
2019-02-09T09:18:28.399Z,9.09
2019-02-09T09:24:34.295Z,9.22
2019-02-09T09:30:40.220Z,9.51
2019-02-09T09:36:46.073Z,9.68
2019-02-09T09:42:51.977Z,9.75
2019-02-09T09:48:58.306Z,9.86
2019-02-09T09:55:04.285Z,9.96
2019-02-09T10:01:10.353Z,9.93
2019-02-09T10:07:17.602Z,10.00
2019-02-09T10:13:23.463Z,10.12
2019-02-09T10:19:29.231Z,10.23
2019-02-09T10:25:35.132Z,10.40
2019-02-09T10:31:41.081Z,10.66
2019-02-09T10:37:47.199Z,10.66
2019-02-09T10:43:53.216Z,10.49
2019-02-09T10:49:59.214Z,10.35
2019-02-09T10:56:05.483Z,10.12
2019-02-09T11:02:11.393Z,10.10
2019-02-09T11:08:17.458Z,10.14
2019-02-09T11:14:23.541Z,10.25
2019-02-09T11:20:30.353Z,10.35
2019-02-09T11:26:36.369Z,10.50
2019-02-09T11:32:42.185Z,10.58
2019-02-09T11:38:48.354Z,10.52
2019-02-09T11:44:54.318Z,10.58
2019-02-09T11:51:00.101Z,10.81
2019-02-09T11:57:06.144Z,10.86
2019-02-09T12:03:15.097Z,10.91
2019-02-09T12:09:20.189Z,11.05
2019-02-09T12:15:31.635Z,11.15
2019-02-09T12:21:37.485Z,11.20
2019-02-09T12:27:43.650Z,11.11
2019-02-09T12:33:49.740Z,11.12
2019-02-09T12:40:18.489Z,10.98
2019-02-09T12:46:24.608Z,10.56
2019-02-09T12:52:30.350Z,10.50
2019-02-09T12:58:36.325Z,10.50
2019-02-09T13:04:42.351Z,10.57
2019-02-09T13:10:48.502Z,10.52
2019-02-09T13:16:54.842Z,10.63
2019-02-09T13:23:01.217Z,10.70
2019-02-09T13:29:07.096Z,10.80
2019-02-09T13:35:13.826Z,10.90
2019-02-09T13:41:19.581Z,11.05
2019-02-09T13:47:25.329Z,11.21
2019-02-09T13:53:31.112Z,11.35
2019-02-09T13:59:37.224Z,11.36
2019-02-09T14:05:43.377Z,11.40
2019-02-09T14:11:49.143Z,11.35
2019-02-09T14:17:55.880Z,11.22
2019-02-09T14:24:01.768Z,11.00
2019-02-09T14:30:15.879Z,10.75
2019-02-09T14:36:21.964Z,10.27
2019-02-09T14:42:27.789Z,9.87
2019-02-09T14:48:33.566Z,9.75
2019-02-09T14:54:39.944Z,9.67
2019-02-09T15:00:49.545Z,9.49
2019-02-09T15:06:55.345Z,9.38
2019-02-09T15:13:01.138Z,9.29
2019-02-09T15:19:07.332Z,9.19
2019-02-09T15:25:13.695Z,9.16
2019-02-09T15:31:19.946Z,9.15
2019-02-09T15:37:25.695Z,9.15
2019-02-09T15:43:31.477Z,9.18
2019-02-09T15:49:37.771Z,9.26
2019-02-09T15:55:43.577Z,9.40
2019-02-09T16:01:49.363Z,9.60
2019-02-09T16:07:55.205Z,9.64
2019-02-09T16:14:01.609Z,9.68
2019-02-09T16:20:09.042Z,9.71
2019-02-09T16:26:14.853Z,9.69
2019-02-09T16:32:20.765Z,9.67
2019-02-09T16:38:26.901Z,9.63
2019-02-09T16:44:33.027Z,9.65
2019-02-09T16:50:39.019Z,9.66
2019-02-09T16:56:44.872Z,9.73
2019-02-09T17:02:50.745Z,9.78
2019-02-09T17:08:56.511Z,9.82
2019-02-09T17:15:02.271Z,9.76
2019-02-09T17:21:08.164Z,9.62
2019-02-09T17:27:14.350Z,9.44
2019-02-09T17:33:20.482Z,9.29
2019-02-09T17:39:26.304Z,9.17
2019-02-09T17:45:57.167Z,9.07
2019-02-09T17:52:02.909Z,9.00
2019-02-09T17:58:08.985Z,8.94
2019-02-09T18:04:14.809Z,8.88
2019-02-09T18:10:21.953Z,8.95
2019-02-09T18:16:27.668Z,9.01
2019-02-09T18:28:50.622Z,9.18
2019-02-09T18:35:00.418Z,9.25
2019-02-09T18:41:06.672Z,9.21
2019-02-09T18:47:12.532Z,9.16
2019-02-09T18:53:18.321Z,9.14
2019-02-09T18:59:24.420Z,9.12
2019-02-09T19:05:30.446Z,9.12
2019-02-09T19:11:36.841Z,9.17
2019-02-09T19:17:42.822Z,9.19
2019-02-09T19:23:48.661Z,9.21
2019-02-09T19:29:54.534Z,9.16
2019-02-09T19:36:00.529Z,9.08
2019-02-09T19:42:06.788Z,9.07
2019-02-09T19:48:14.430Z,9.03
2019-02-09T19:54:20.654Z,8.98
2019-02-09T20:00:29.833Z,9.00
2019-02-09T20:06:35.694Z,9.04
2019-02-09T20:12:42.634Z,9.03
2019-02-09T20:18:48.504Z,9.09
2019-02-09T20:24:54.610Z,9.10
2019-02-09T20:31:00.702Z,9.19
2019-02-09T20:37:07.056Z,9.23
2019-02-09T20:43:15.643Z,9.17
2019-02-09T20:49:21.621Z,9.18
2019-02-09T20:55:27.952Z,9.12
2019-02-09T21:01:33.704Z,9.17
2019-02-09T21:07:39.875Z,9.24
2019-02-09T21:13:46.884Z,9.31
2019-02-09T21:19:53.258Z,9.31
2019-02-09T21:25:59.950Z,9.23
2019-02-09T21:32:06.382Z,9.22
2019-02-09T21:38:12.705Z,9.20
2019-02-09T21:44:18.500Z,9.17
2019-02-09T21:50:31.206Z,9.15
2019-02-09T21:56:37.249Z,9.18
2019-02-09T22:02:43.330Z,9.22
2019-02-09T22:08:49.176Z,9.29
2019-02-09T22:14:55.242Z,9.37
2019-02-09T22:21:01.307Z,9.47
2019-02-09T22:27:07.063Z,9.46
2019-02-09T22:33:12.886Z,9.44
2019-02-09T22:39:18.928Z,9.45
2019-02-09T22:45:26.091Z,9.40
2019-02-09T22:51:32.083Z,9.42
2019-02-09T22:57:38.138Z,9.42
2019-02-09T23:04:24.467Z,9.43
2019-02-09T23:10:30.513Z,9.37
2019-02-09T23:23:00.666Z,9.30
2019-02-09T23:29:17.382Z,9.28
2019-02-09T23:35:29.562Z,9.28
2019-02-09T23:41:47.968Z,9.32
2019-02-09T23:48:03.101Z,9.33
2019-02-09T23:54:11.559Z,9.34
